Time;durP1;ratioP1;P1;durP2;ratioP2;P2;SDS_P1;SDS_P2;PMS_P1;PMS_P2;Temp;Humidity;BMP_temperature;BMP_pressure;BME280_temperature;BME280_humidity;BME280_pressure;Samples;Min_cycle;Max_cycle;Signal;HPM_P1;HPM_P2
2021/05/30 00:01:31;;;;;;;;;;;;;;;18.22;59.76;101148.25;5105992;28;19919;-86
2021/05/30 00:04:17;;;;;;;;;;;;;;;18.23;59.25;101156.19;5103671;28;19912;-86
2021/05/30 00:07:02;;;;;;;;;;;;;;;18.13;58.01;101151.22;5107873;28;19912;-86
2021/05/30 00:09:47;;;;;;;;;;;;;;;18.14;58.30;101160.25;5095172;28;19916;-86
2021/05/30 00:12:33;;;;;;;;;;;;;;;18.10;57.19;101153.84;5103410;28;19920;-85
2021/05/30 00:15:18;;;;;;;;;;;;;;;18.14;56.99;101152.78;5083242;28;19916;-86
2021/05/30 00:18:04;;;;;;;;;;;;;;;18.13;56.73;101153.16;5104316;28;19912;-86
2021/05/30 00:20:50;;;;;;;;;;;;;;;18.15;56.81;101164.59;5104290;28;19912;-86
2021/05/30 00:23:37;;;;;;;;;;;;;;;18.16;56.73;101166.19;5106854;28;19912;-86
2021/05/30 00:26:22;;;;;;;;;;;;;;;18.17;56.27;101170.56;5105828;28;19912;-86
2021/05/30 00:29:07;;;;;;;;;;;;;;;18.14;55.78;101165.75;5105181;28;19915;-86
2021/05/30 00:31:52;;;;;;;;;;;;;;;18.13;55.36;101169.69;5108686;28;19912;-86
2021/05/30 00:34:37;;;;;;;;;;;;;;;18.06;55.67;101175.78;5086346;28;19920;-86
2021/05/30 00:37:22;;;;;;;;;;;;;;;18.07;55.52;101174.66;5102886;28;19912;-86
2021/05/30 00:40:07;;;;;;;;;;;;;;;18.06;55.83;101180.50;5090286;28;19912;-86
2021/05/30 00:42:52;;;;;;;;;;;;;;;17.99;55.55;101174.78;5107039;28;19912;-86
2021/05/30 00:45:36;;;;;;;;;;;;;;;18.01;55.64;101178.00;5089818;28;19938;-86
2021/05/30 00:48:22;;;;;;;;;;;;;;;17.92;54.88;101175.44;5106215;28;19911;-86
2021/05/30 00:51:07;;;;;;;;;;;;;;;17.91;55.06;101179.31;5106638;28;19915;-86
2021/05/30 00:53:52;;;;;;;;;;;;;;;17.90;54.52;101175.78;5104949;28;19916;-86
2021/05/30 00:56:36;;;;;;;;;;;;;;;17.92;55.04;101178.97;5111557;28;19911;-86
2021/05/30 00:59:21;;;;;;;;;;;;;;;17.94;54.54;101178.59;5111470;28;19912;-86
2021/05/30 01:02:08;;;;;;;;;;;;;;;17.92;54.66;101175.44;5109509;28;19911;-86
2021/05/30 01:04:53;;;;;;;;;;;;;;;17.97;54.86;101179.88;5112638;28;19920;-86
2021/05/30 01:07:46;;;;;;;;;;;;;;;18.00;54.73;101176.41;5111440;28;19915;-86
2021/05/30 01:10:34;;;;;;;;;;;;;;;18.03;54.70;101178.47;5093297;28;19912;-86
2021/05/30 01:13:19;;;;;;;;;;;;;;;18.05;54.31;101179.69;5091685;28;19912;-86
2021/05/30 01:16:04;;;;;;;;;;;;;;;18.04;54.34;101180.03;5075745;28;19912;-85
2021/05/30 01:18:56;;;;;;;;;;;;;;;18.09;54.19;101179.78;5108114;28;19912;-86
2021/05/30 01:21:44;;;;;;;;;;;;;;;18.09;54.21;101177.03;5112976;28;19912;-86
2021/05/30 01:24:29;;;;;;;;;;;;;;;18.05;54.29;101179.69;5107709;28;19920;-86
2021/05/30 01:27:16;;;;;;;;;;;;;;;17.99;54.69;101186.59;5093146;28;19920;-86
2021/05/30 01:30:01;;;;;;;;;;;;;;;18.03;54.15;101194.97;5112013;28;19923;-86
2021/05/30 01:32:48;;;;;;;;;;;;;;;18.01;53.44;101195.31;5110253;28;20329;-86
2021/05/30 01:35:33;;;;;;;;;;;;;;;18.01;52.91;101189.00;5096916;28;20914;-86
2021/05/30 01:38:18;;;;;;;;;;;;;;;18.05;52.17;101185.19;5112694;28;19924;-86
2021/05/30 01:41:04;;;;;;;;;;;;;;;18.01;51.56;101187.06;5109686;28;19912;-86
2021/05/30 01:43:48;;;;;;;;;;;;;;;18.02;51.47;101194.16;5108062;28;19923;-85
2021/05/30 01:46:33;;;;;;;;;;;;;;;18.05;51.69;101196.19;5112032;28;20392;-86
2021/05/30 01:49:18;;;;;;;;;;;;;;;18.05;51.42;101184.38;5107292;28;19912;-86
2021/05/30 01:52:03;;;;;;;;;;;;;;;18.02;50.89;101188.66;5108073;28;19912;-86
2021/05/30 01:54:51;;;;;;;;;;;;;;;18.01;50.77;101189.00;5096277;28;19923;-86
2021/05/30 01:57:42;;;;;;;;;;;;;;;17.95;50.63;101183.75;5110022;28;19912;-86
2021/05/30 02:00:27;;;;;;;;;;;;;;;17.95;50.27;101186.53;5106683;28;19916;-86
2021/05/30 02:03:12;;;;;;;;;;;;;;;17.99;50.36;101183.06;5105062;28;19915;-86
2021/05/30 02:05:58;;;;;;;;;;;;;;;17.95;50.29;101185.72;5103546;28;20114;-86
2021/05/30 02:08:44;;;;;;;;;;;;;;;17.97;49.77;101188.13;5104312;28;19920;-86
2021/05/30 02:11:28;;;;;;;;;;;;;;;17.98;49.53;101184.22;5109031;28;20671;-86
2021/05/30 02:14:14;;;;;;;;;;;;;;;17.94;49.45;101186.88;5108217;28;19923;-86
2021/05/30 02:16:59;;;;;;;;;;;;;;;17.95;49.47;101189.28;5107537;28;19912;-86
2021/05/30 02:19:44;;;;;;;;;;;;;;;17.93;49.01;101183.31;5093771;28;19912;-85
2021/05/30 02:22:31;;;;;;;;;;;;;;;17.88;49.58;101178.06;5109213;28;19915;-86
2021/05/30 02:25:16;;;;;;;;;;;;;;;17.77;49.51;101179.75;5107690;28;19912;-86
2021/05/30 02:28:01;;;;;;;;;;;;;;;17.79;49.76;101177.44;5105524;28;19912;-86
2021/05/30 02:30:45;;;;;;;;;;;;;;;17.81;49.89;101177.09;5109800;28;20317;-86
2021/05/30 02:33:30;;;;;;;;;;;;;;;17.78;49.72;101186.03;5106745;28;19912;-86
2021/05/30 02:36:15;;;;;;;;;;;;;;;17.62;50.57;101175.03;5091781;28;19912;-86
2021/05/30 02:39:00;;;;;;;;;;;;;;;17.66;50.25;101173.16;5095920;28;19912;-86
2021/05/30 02:41:45;;;;;;;;;;;;;;;17.72;49.92;101170.97;5106131;28;19911;-86
2021/05/30 02:44:30;;;;;;;;;;;;;;;17.73;49.49;101176.09;5106341;28;19912;-86
2021/05/30 02:47:15;;;;;;;;;;;;;;;17.82;48.99;101182.25;5102501;28;20123;-86
2021/05/30 02:50:00;;;;;;;;;;;;;;;17.88;49.18;101178.06;5093584;28;20298;-86
2021/05/30 02:52:45;;;;;;;;;;;;;;;17.91;49.01;101182.88;5099806;28;19912;-86
2021/05/30 02:55:30;;;;;;;;;;;;;;;17.93;48.49;101179.75;5109998;28;19916;-86
2021/05/30 02:58:15;;;;;;;;;;;;;;;17.91;49.10;101188.38;5107609;28;19912;-86
2021/05/30 03:01:00;;;;;;;;;;;;;;;17.92;48.76;101183.69;5090605;28;20377;-86
2021/05/30 03:03:44;;;;;;;;;;;;;;;17.80;48.06;101176.28;5093434;28;19912;-86
2021/05/30 03:06:29;;;;;;;;;;;;;;;17.75;48.04;101179.31;5101747;28;19912;-86
2021/05/30 03:09:13;;;;;;;;;;;;;;;17.76;48.07;101178.16;5086562;28;19920;-86
2021/05/30 03:11:58;;;;;;;;;;;;;;;17.74;48.25;101177.69;5089571;28;20377;-86
2021/05/30 03:14:43;;;;;;;;;;;;;;;17.73;48.78;101176.09;5105048;28;20290;-86
2021/05/30 03:17:28;;;;;;;;;;;;;;;17.73;49.40;101178.84;5106458;28;20285;-86
2021/05/30 03:20:12;;;;;;;;;;;;;;;17.68;50.11;101181.84;5103731;28;19912;-86
2021/05/30 03:22:57;;;;;;;;;;;;;;;17.51;50.05;101182.94;5112749;22;19919;-79
2021/05/30 03:25:44;;;;;;;;;;;;;;;17.38;50.32;101183.31;5084575;28;20394;-79
2021/05/30 03:28:29;;;;;;;;;;;;;;;17.41;50.26;101177.16;5090632;28;19916;-81
2021/05/30 03:31:14;;;;;;;;;;;;;;;17.36;50.23;101180.13;5085304;28;19920;-79
2021/05/30 03:33:58;;;;;;;;;;;;;;;17.30;50.75;101176.03;5091297;28;19916;-78
2021/05/30 03:36:46;;;;;;;;;;;;;;;17.24;50.89;101185.66;5093391;28;19912;-79
2021/05/30 03:39:32;;;;;;;;;;;;;;;17.21;50.83;101184.44;5090433;28;19911;-80
2021/05/30 03:42:20;;;;;;;;;;;;;;;17.24;50.51;101188.41;5096811;28;19912;-81
2021/05/30 03:45:05;;;;;;;;;;;;;;;17.19;50.83;101183.16;5096011;28;19912;-81
2021/05/30 03:47:50;;;;;;;;;;;;;;;17.17;50.73;101185.47;5096554;28;19912;-79
2021/05/30 03:50:36;;;;;;;;;;;;;;;17.19;50.78;101192.22;5099784;28;19911;-77
2021/05/30 03:53:20;;;;;;;;;;;;;;;17.21;50.46;101178.13;5095127;28;19912;-80
2021/05/30 03:56:05;;;;;;;;;;;;;;;17.16;50.31;101183.88;5093379;28;19916;-79
2021/05/30 03:58:50;;;;;;;;;;;;;;;17.17;50.55;101179.97;5097706;28;19912;-79
2021/05/30 04:01:37;;;;;;;;;;;;;;;17.19;50.15;101180.41;5096092;28;19912;-78
2021/05/30 04:04:21;;;;;;;;;;;;;;;17.18;49.96;101189.81;5075932;28;19912;-79
2021/05/30 04:07:06;;;;;;;;;;;;;;;17.15;50.03;101190.50;5094984;28;19912;-78
2021/05/30 04:09:50;;;;;;;;;;;;;;;17.14;49.91;101188.91;5094706;28;19912;-81
2021/05/30 04:12:35;;;;;;;;;;;;;;;17.16;50.22;101189.38;5093054;28;19912;-77
2021/05/30 04:15:20;;;;;;;;;;;;;;;17.16;50.24;101184.69;5092524;28;19921;-78
2021/05/30 04:18:04;;;;;;;;;;;;;;;17.21;50.28;101183.63;5094258;28;19912;-80
2021/05/30 04:20:49;;;;;;;;;;;;;;;17.27;50.43;101183.00;5093000;28;19916;-79
2021/05/30 04:23:34;;;;;;;;;;;;;;;17.37;50.02;101182.53;5094451;28;19912;-79
2021/05/30 04:26:19;;;;;;;;;;;;;;;17.46;49.95;101182.41;5091083;28;20296;-80
2021/05/30 04:29:04;;;;;;;;;;;;;;;17.52;49.28;101184.53;5093904;28;19920;-81
2021/05/30 04:31:49;;;;;;;;;;;;;;;17.60;48.44;101177.31;5099783;28;19919;-80
2021/05/30 04:34:33;;;;;;;;;;;;;;;17.61;48.40;101181.66;5100667;28;19943;-78
2021/05/30 04:37:18;;;;;;;;;;;;;;;17.65;47.38;101182.56;5099540;28;20388;-77
2021/05/30 04:40:03;;;;;;;;;;;;;;;17.69;46.69;101183.44;5095548;28;19912;-78
2021/05/30 04:42:48;;;;;;;;;;;;;;;17.74;47.94;101190.66;5099971;28;19916;-77
2021/05/30 04:45:32;;;;;;;;;;;;;;;17.70;47.72;101185.06;5099350;28;19912;-77
2021/05/30 04:48:17;;;;;;;;;;;;;;;17.77;47.14;101178.97;5097023;28;20380;-77
2021/05/30 04:51:12;;;;;;;;;;;;;;;17.80;46.74;101179.03;5098618;28;19912;-77
2021/05/30 04:53:58;;;;;;;;;;;;;;;17.84;46.92;101182.69;5098253;28;19911;-77
2021/05/30 04:56:43;;;;;;;;;;;;;;;17.93;46.92;101182.50;5101245;28;19912;-77
2021/05/30 04:59:27;;;;;;;;;;;;;;;17.99;46.98;101174.78;5097145;28;19911;-78
2021/05/30 05:02:13;;;;;;;;;;;;;;;18.07;46.69;101184.84;5096797;28;20292;-77
2021/05/30 05:04:57;;;;;;;;;;;;;;;18.11;46.72;101188.47;5092668;28;20295;-78
2021/05/30 05:07:44;;;;;;;;;;;;;;;18.16;47.13;101196.47;5099041;28;19912;-79
2021/05/30 05:10:29;;;;;;;;;;;;;;;18.20;47.17;101191.84;5096565;28;19935;-78
2021/05/30 05:13:14;;;;;;;;;;;;;;;18.21;46.12;101187.97;5099898;28;20315;-79
2021/05/30 05:15:58;;;;;;;;;;;;;;;18.24;45.64;101184.47;5101263;28;19916;-80
2021/05/30 05:18:45;;;;;;;;;;;;;;;18.29;46.10;101186.97;5097275;28;19912;-78
2021/05/30 05:21:29;;;;;;;;;;;;;;;18.30;44.92;101183.88;5102508;28;19915;-78
2021/05/30 05:24:14;;;;;;;;;;;;;;;18.36;44.63;101196.22;5098200;28;19919;-76
2021/05/30 05:26:59;;;;;;;;;;;;;;;18.41;45.74;101186.88;5100314;28;20380;-79
2021/05/30 05:29:43;;;;;;;;;;;;;;;18.47;45.48;101196.47;5094239;28;19912;-79
2021/05/30 05:32:28;;;;;;;;;;;;;;;18.50;45.21;101193.00;5100876;28;19912;-78
2021/05/30 05:35:12;;;;;;;;;;;;;;;18.57;44.81;101190.47;5098944;28;19915;-80
2021/05/30 05:37:58;;;;;;;;;;;;;;;18.63;43.75;101194.53;5097838;28;19912;-78
2021/05/30 05:40:43;;;;;;;;;;;;;;;18.67;42.39;101200.13;5101328;28;19912;-78
2021/05/30 05:43:28;;;;;;;;;;;;;;;18.72;42.19;101186.88;5098964;28;19912;-80
2021/05/30 05:46:12;;;;;;;;;;;;;;;18.75;42.06;101197.16;5096783;28;19912;-78
2021/05/30 05:48:56;;;;;;;;;;;;;;;18.82;41.76;101195.75;5100699;28;19912;-79
2021/05/30 05:51:41;;;;;;;;;;;;;;;18.91;40.92;101199.91;5097226;28;19912;-78
2021/05/30 05:54:25;;;;;;;;;;;;;;;18.97;41.02;101198.47;5095384;28;19971;-80
2021/05/30 05:57:09;;;;;;;;;;;;;;;19.07;39.80;101199.84;5100039;28;19916;-77
2021/05/30 05:59:54;;;;;;;;;;;;;;;19.20;39.77;101190.28;5100154;28;19919;-80
2021/05/30 06:02:39;;;;;;;;;;;;;;;19.16;37.85;101200.44;5095249;28;20419;-78
2021/05/30 06:05:24;;;;;;;;;;;;;;;19.30;38.72;101195.22;5099644;28;19912;-80
2021/05/30 06:08:09;;;;;;;;;;;;;;;19.43;38.11;101198.66;5098476;28;19912;-79
2021/05/30 06:10:53;;;;;;;;;;;;;;;19.50;37.96;101193.31;5097197;28;19937;-79
2021/05/30 06:13:37;;;;;;;;;;;;;;;19.54;36.71;101199.69;5095123;28;19916;-77
2021/05/30 06:16:23;;;;;;;;;;;;;;;19.62;37.46;101202.22;5097271;28;19916;-78
2021/05/30 06:19:07;;;;;;;;;;;;;;;19.58;36.34;101195.03;5096610;28;19912;-78
2021/05/30 06:21:52;;;;;;;;;;;;;;;19.69;35.82;101196.06;5094228;28;20508;-77
2021/05/30 06:24:36;;;;;;;;;;;;;;;19.75;36.91;101199.31;5095871;28;19912;-79
2021/05/30 06:27:21;;;;;;;;;;;;;;;19.77;36.48;101203.28;5095326;28;19912;-78
2021/05/30 06:30:06;;;;;;;;;;;;;;;19.84;36.93;101199.88;5094160;28;19920;-77
2021/05/30 06:32:51;;;;;;;;;;;;;;;19.95;37.76;101206.41;5083839;28;19912;-78
2021/05/30 06:35:38;;;;;;;;;;;;;;;19.99;36.05;101204.50;5096982;28;19916;-78
2021/05/30 06:38:23;;;;;;;;;;;;;;;20.01;35.93;101202.94;5092774;28;19912;-79
2021/05/30 06:41:08;;;;;;;;;;;;;;;20.11;35.45;101198.81;5097890;28;19912;-78
2021/05/30 06:43:53;;;;;;;;;;;;;;;20.17;35.75;101202.84;5096382;28;19920;-77
2021/05/30 06:46:37;;;;;;;;;;;;;;;20.28;36.51;101195.53;5080132;28;19912;-78
2021/05/30 06:49:21;;;;;;;;;;;;;;;20.26;35.70;101194.31;5098454;28;19912;-80
2021/05/30 06:52:06;;;;;;;;;;;;;;;20.25;34.86;101201.81;5097707;28;19911;-80
2021/05/30 06:54:51;;;;;;;;;;;;;;;20.28;33.81;101195.53;5093678;28;19916;-78
2021/05/30 06:57:35;;;;;;;;;;;;;;;20.38;34.56;101194.94;5099581;28;20303;-77
2021/05/30 07:00:20;;;;;;;;;;;;;;;20.43;35.68;101191.88;5098128;28;19920;-79
2021/05/30 07:03:04;;;;;;;;;;;;;;;20.54;34.47;101194.81;5094619;28;19916;-79
2021/05/30 07:05:48;;;;;;;;;;;;;;;20.60;34.60;101200.81;5097933;28;19911;-77
2021/05/30 07:08:34;;;;;;;;;;;;;;;20.74;34.77;101201.03;5096884;28;19920;-78
2021/05/30 07:11:18;;;;;;;;;;;;;;;20.85;34.92;101202.78;5095551;28;20375;-77
2021/05/30 07:14:03;;;;;;;;;;;;;;;20.95;35.39;101200.53;5091251;28;20371;-78
2021/05/30 07:16:48;;;;;;;;;;;;;;;20.99;33.97;101202.19;5096430;28;20372;-77
2021/05/30 07:19:33;;;;;;;;;;;;;;;21.07;34.60;101192.81;5094810;28;19912;-76
2021/05/30 07:22:17;;;;;;;;;;;;;;;21.22;34.60;101200.16;5093437;28;20371;-77
2021/05/30 07:25:02;;;;;;;;;;;;;;;21.32;34.53;101193.19;5090967;28;20299;-78
2021/05/30 07:27:47;;;;;;;;;;;;;;;21.32;33.90;101198.72;5094153;28;19912;-77
2021/05/30 07:30:33;;;;;;;;;;;;;;;21.26;33.61;101198.25;5092696;28;19912;-76
2021/05/30 07:33:19;;;;;;;;;;;;;;;21.32;34.12;101193.97;5095701;28;19912;-77
2021/05/30 07:36:05;;;;;;;;;;;;;;;21.44;33.70;101186.56;5094488;28;19916;-78
2021/05/30 07:38:50;;;;;;;;;;;;;;;21.61;31.96;101191.53;5094281;28;19916;-77
2021/05/30 07:41:35;;;;;;;;;;;;;;;21.70;32.67;101186.50;5098259;28;19912;-79
2021/05/30 07:44:20;;;;;;;;;;;;;;;21.71;34.28;101188.09;5093601;28;19916;-79
2021/05/30 07:47:05;;;;;;;;;;;;;;;21.77;32.99;101183.81;5092191;28;19912;-79
2021/05/30 07:49:50;;;;;;;;;;;;;;;21.74;33.08;101190.88;5081595;28;19916;-78
2021/05/30 07:52:35;;;;;;;;;;;;;;;21.82;33.19;101177.13;5080635;28;19912;-78
2021/05/30 07:55:20;;;;;;;;;;;;;;;21.98;32.89;101181.28;5091036;28;19920;-78
2021/05/30 07:58:05;;;;;;;;;;;;;;;21.86;32.38;101184.28;5096691;28;20368;-77
2021/05/30 08:00:49;;;;;;;;;;;;;;;21.75;33.33;101175.06;5093306;28;19911;-77
2021/05/30 08:03:34;;;;;;;;;;;;;;;21.61;33.52;101177.69;5092555;28;20299;-78
2021/05/30 08:06:18;;;;;;;;;;;;;;;21.68;33.35;101184.13;5096126;28;19911;-77
2021/05/30 08:09:03;;;;;;;;;;;;;;;21.81;33.44;101176.31;5093379;28;20375;-76
2021/05/30 08:11:48;;;;;;;;;;;;;;;21.82;32.89;101175.16;5092285;28;19916;-76
2021/05/30 08:14:33;;;;;;;;;;;;;;;22.00;33.13;101183.66;5091228;28;19915;-78
2021/05/30 08:17:17;;;;;;;;;;;;;;;22.03;32.96;101175.41;5097717;28;19915;-79
2021/05/30 08:20:03;;;;;;;;;;;;;;;22.03;31.63;101180.94;5093556;28;19912;-80
2021/05/30 08:22:48;;;;;;;;;;;;;;;22.04;31.92;101173.44;5092612;28;19919;-79
2021/05/30 08:25:33;;;;;;;;;;;;;;;21.95;31.14;101176.50;5096850;28;19912;-75
2021/05/30 08:28:18;;;;;;;;;;;;;;;22.05;31.32;101178.56;5095834;28;19911;-81
2021/05/30 08:31:03;;;;;;;;;;;;;;;22.05;31.22;101180.53;5091644;28;19912;-78
2021/05/30 08:33:48;;;;;;;;;;;;;;;22.25;29.70;101181.13;5096284;28;19916;-80
2021/05/30 08:36:32;;;;;;;;;;;;;;;22.40;29.94;101175.28;5095027;28;19916;-79
2021/05/30 08:39:17;;;;;;;;;;;;;;;22.31;27.75;101172.06;5100338;28;19912;-79
2021/05/30 08:42:01;;;;;;;;;;;;;;;22.32;30.70;101175.63;5095869;28;19911;-79
2021/05/30 08:44:47;;;;;;;;;;;;;;;22.43;30.24;101173.75;5092435;28;19912;-78
2021/05/30 08:47:31;;;;;;;;;;;;;;;22.49;28.09;101163.91;5092933;28;19912;-78
2021/05/30 08:50:16;;;;;;;;;;;;;;;22.36;27.27;101170.91;5096280;28;19912;-80
2021/05/30 08:53:02;;;;;;;;;;;;;;;22.47;26.67;101164.28;5096638;28;19942;-79
2021/05/30 08:55:47;;;;;;;;;;;;;;;22.44;29.19;101172.56;5097247;28;19920;-78
2021/05/30 08:58:36;;;;;;;;;;;;;;;22.48;29.94;101173.38;5099485;28;19912;-79
2021/05/30 09:01:26;;;;;;;;;;;;;;;22.52;28.83;101171.44;5093433;28;19915;-81
2021/05/30 09:04:11;;;;;;;;;;;;;;;22.52;28.72;101171.44;5093625;28;19916;-79
2021/05/30 09:06:55;;;;;;;;;;;;;;;22.78;30.24;101171.25;5091253;28;19920;-81
2021/05/30 09:09:44;;;;;;;;;;;;;;;22.73;28.61;101176.34;5083513;28;19916;-81
2021/05/30 09:12:34;;;;;;;;;;;;;;;22.79;30.72;101158.19;5093077;28;19911;-80
2021/05/30 09:15:22;;;;;;;;;;;;;;;22.87;29.15;101171.69;5097405;28;20376;-80
2021/05/30 09:18:11;;;;;;;;;;;;;;;22.80;28.89;101168.91;5100998;28;20380;-79
2021/05/30 09:21:00;;;;;;;;;;;;;;;22.84;29.32;101172.47;5096831;28;19916;-80
2021/05/30 09:23:45;;;;;;;;;;;;;;;22.98;27.26;101169.78;5112788;22;19912;-81
2021/05/30 09:26:30;;;;;;;;;;;;;;;22.95;27.94;101167.78;5025121;28;20303;-80
2021/05/30 09:29:14;;;;;;;;;;;;;;;22.96;29.26;101163.00;5035867;28;19916;-81
2021/05/30 09:31:59;;;;;;;;;;;;;;;23.18;29.85;101163.91;5034209;28;19912;-81
2021/05/30 09:34:44;;;;;;;;;;;;;;;23.32;28.61;101163.97;5037687;28;19921;-82
2021/05/30 09:37:28;;;;;;;;;;;;;;;23.32;28.13;101166.75;5036163;28;19917;-81
2021/05/30 09:40:12;;;;;;;;;;;;;;;23.29;28.45;101160.00;5034156;28;19913;-82
2021/05/30 09:43:03;;;;;;;;;;;;;;;23.33;29.11;101165.56;5037805;28;19917;-82
2021/05/30 09:45:59;;;;;;;;;;;;;;;23.21;28.54;101160.38;5035624;28;19916;-83
2021/05/30 09:49:04;;;;;;;;;;;;;;;23.23;28.82;101164.34;5030444;28;20400;-82
2021/05/30 09:51:49;;;;;;;;;;;;;;;23.38;27.81;101156.84;5033227;28;19909;-82
2021/05/30 09:54:34;;;;;;;;;;;;;;;23.46;28.23;101152.97;5034690;28;19921;-83
2021/05/30 09:57:18;;;;;;;;;;;;;;;23.37;28.45;101141.38;5037998;28;19913;-78
2021/05/30 10:00:03;;;;;;;;;;;;;;;23.55;28.50;101144.25;5035628;28;19917;-82
2021/05/30 10:02:56;;;;;;;;;;;;;;;23.59;28.06;101139.50;5032720;28;19913;-83
2021/05/30 10:05:41;;;;;;;;;;;;;;;23.54;30.34;101142.66;5034981;28;19913;-82
2021/05/30 10:08:26;;;;;;;;;;;;;;;23.43;30.36;101137.84;5036101;28;19913;-80
2021/05/30 10:11:12;;;;;;;;;;;;;;;23.51;30.41;101133.16;5031383;28;19921;-81
2021/05/30 10:13:57;;;;;;;;;;;;;;;23.68;29.79;101129.59;5046379;28;19913;-79
2021/05/30 10:16:42;;;;;;;;;;;;;;;23.79;30.68;101127.63;5035886;28;20291;-83
2021/05/30 10:19:28;;;;;;;;;;;;;;;23.60;28.82;101113.31;5019521;28;19917;-83
2021/05/30 10:22:16;;;;;;;;;;;;;;;23.77;27.67;101124.44;5038129;28;19913;-81
2021/05/30 10:25:02;;;;;;;;;;;;;;;23.83;29.29;101120.09;5043893;28;19912;-81
2021/05/30 10:28:05;;;;;;;;;;;;;;;23.90;29.27;101119.31;5053662;28;19912;-79
2021/05/30 10:30:51;;;;;;;;;;;;;;;23.80;28.55;101117.31;5057532;28;19913;-80
2021/05/30 10:33:35;;;;;;;;;;;;;;;23.94;28.70;101110.97;5055144;28;19912;-81
2021/05/30 10:36:20;;;;;;;;;;;;;;;24.11;28.47;101104.63;5053520;28;19912;-82
2021/05/30 10:39:24;;;;;;;;;;;;;;;24.27;27.96;101105.84;5057449;28;20416;-83
2021/05/30 10:42:09;;;;;;;;;;;;;;;24.22;27.46;101099.91;5053136;28;19913;-80
2021/05/30 10:44:54;;;;;;;;;;;;;;;24.18;28.84;101099.88;5051771;28;19920;-82
2021/05/30 10:47:43;;;;;;;;;;;;;;;24.18;28.53;101104.63;5055997;28;19913;-82
2021/05/30 10:50:32;;;;;;;;;;;;;;;24.36;28.46;101105.44;5053653;28;19932;-80
2021/05/30 10:53:30;;;;;;;;;;;;;;;24.10;28.04;101103.84;5050527;28;20298;-79
2021/05/30 10:56:18;;;;;;;;;;;;;;;24.10;28.29;101103.03;5054651;28;19920;-81
2021/05/30 10:59:03;;;;;;;;;;;;;;;24.26;28.29;101107.03;5053245;28;19916;-82
2021/05/30 11:01:48;;;;;;;;;;;;;;;24.35;27.90;101103.03;5057677;28;20379;-83
2021/05/30 11:04:34;;;;;;;;;;;;;;;24.36;27.63;101105.44;5054358;28;19912;-79
2021/05/30 11:07:18;;;;;;;;;;;;;;;24.43;28.78;101101.84;5053679;28;20390;-82
2021/05/30 11:10:04;;;;;;;;;;;;;;;24.44;27.64;101101.44;5057536;28;19913;-81
2021/05/30 11:12:51;;;;;;;;;;;;;;;24.45;26.26;101102.22;5055080;28;19916;-82
2021/05/30 11:15:36;;;;;;;;;;;;;;;24.54;26.26;101100.63;5053001;28;19912;-81
2021/05/30 11:18:21;;;;;;;;;;;;;;;24.56;27.02;101092.69;5051267;28;20375;-83
2021/05/30 11:21:06;;;;;;;;;;;;;;;24.62;29.08;101087.50;5047761;28;19913;-81
2021/05/30 11:23:51;;;;;;;;;;;;;;;24.59;27.77;101080.75;5047816;28;20375;-79
2021/05/30 11:26:36;;;;;;;;;;;;;;;24.65;26.74;101084.69;5051639;28;19929;-81
2021/05/30 11:29:21;;;;;;;;;;;;;;;24.36;27.40;101077.63;5055136;28;20295;-80
2021/05/30 11:32:06;;;;;;;;;;;;;;;24.16;26.85;101073.66;5055092;28;19913;-79
2021/05/30 11:34:51;;;;;;;;;;;;;;;24.26;27.87;101072.88;5052593;28;19913;-79
2021/05/30 11:37:36;;;;;;;;;;;;;;;24.37;27.41;101072.88;5050986;28;19912;-79
2021/05/30 11:40:22;;;;;;;;;;;;;;;24.31;27.69;101072.47;5054120;28;19917;-81
2021/05/30 11:43:17;;;;;;;;;;;;;;;24.59;26.95;101068.81;5051373;28;19913;-80
2021/05/30 11:46:13;;;;;;;;;;;;;;;24.77;26.90;101057.63;5054196;28;19913;-78
2021/05/30 11:49:05;;;;;;;;;;;;;;;24.88;27.20;101069.56;5053979;28;19913;-79
2021/05/30 11:51:50;;;;;;;;;;;;;;;24.97;26.49;101061.56;5050547;28;19913;-79
2021/05/30 11:54:48;;;;;;;;;;;;;;;25.09;25.95;101058.31;5055223;28;19921;-80
2021/05/30 11:57:33;;;;;;;;;;;;;;;24.98;25.38;101049.22;5053306;28;19913;-82
2021/05/30 12:00:18;;;;;;;;;;;;;;;25.12;26.13;101051.94;5050948;28;19921;-78
2021/05/30 12:03:08;;;;;;;;;;;;;;;25.15;25.28;101048.31;5054416;28;19912;-79
2021/05/30 12:06:00;;;;;;;;;;;;;;;25.07;25.81;101044.00;5052320;28;19913;-80
2021/05/30 12:08:54;;;;;;;;;;;;;;;25.09;25.62;101049.97;5049951;28;20386;-82
2021/05/30 12:11:40;;;;;;;;;;;;;;;25.07;27.49;101039.25;5054314;28;19920;-81
2021/05/30 12:14:25;;;;;;;;;;;;;;;25.09;26.71;101049.97;5048469;28;19913;-80
2021/05/30 12:17:10;;;;;;;;;;;;;;;25.10;27.48;101045.97;5055168;28;19917;-81
2021/05/30 12:19:55;;;;;;;;;;;;;;;25.22;26.46;101033.59;5053267;28;19924;-77
2021/05/30 12:22:40;;;;;;;;;;;;;;;25.10;32.22;101035.63;5056416;28;19912;-86
2021/05/30 12:25:24;;;;;;;;;;;;;;;24.96;33.46;101027.38;5057595;28;20395;-85
2021/05/30 12:28:09;;;;;;;;;;;;;;;24.78;27.10;101023.88;5057671;28;19912;-84
2021/05/30 12:30:54;;;;;;;;;;;;;;;24.63;27.15;101020.34;5048222;28;19913;-86
2021/05/30 12:33:58;;;;;;;;;;;;;;;24.68;26.56;101017.16;5051608;28;20294;-85
2021/05/30 12:36:48;;;;;;;;;;;;;;;24.72;30.93;101014.34;5054803;28;19913;-86
2021/05/30 12:39:33;;;;;;;;;;;;;;;24.73;32.73;101015.16;5052923;28;19917;-84
2021/05/30 12:42:23;;;;;;;;;;;;;;;24.55;33.46;101012.41;5056198;28;19912;-85
2021/05/30 12:45:10;;;;;;;;;;;;;;;24.35;33.91;101009.31;5047039;28;19912;-85
2021/05/30 12:47:56;;;;;;;;;;;;;;;24.26;33.01;100995.06;5052104;28;19917;-85
2021/05/30 12:50:40;;;;;;;;;;;;;;;24.13;31.72;100997.41;5051962;28;19913;-87
2021/05/30 12:53:29;;;;;;;;;;;;;;;24.23;33.24;100996.63;5056927;28;19920;-84
2021/05/30 12:56:24;;;;;;;;;;;;;;;24.23;33.24;101002.19;5056027;28;20379;-85
2021/05/30 12:59:13;;;;;;;;;;;;;;;23.85;33.51;100992.72;5058946;28;19916;-87
2021/05/30 13:01:58;;;;;;;;;;;;;;;23.92;33.40;100985.56;5059577;28;19920;-86
2021/05/30 13:04:43;;;;;;;;;;;;;;;24.01;31.87;100980.41;5055865;28;20391;-84
2021/05/30 13:07:30;;;;;;;;;;;;;;;23.94;29.17;100983.19;5056877;28;20318;-84
2021/05/30 13:10:14;;;;;;;;;;;;;;;24.02;31.29;100979.22;5053530;28;19921;-87
2021/05/30 13:12:59;;;;;;;;;;;;;;;24.02;31.89;100980.00;5055930;28;19916;-84
2021/05/30 13:15:46;;;;;;;;;;;;;;;23.95;31.97;100968.09;5058592;28;20279;-83
2021/05/30 13:18:31;;;;;;;;;;;;;;;23.77;30.21;100974.47;5048676;28;19917;-86
2021/05/30 13:21:20;;;;;;;;;;;;;;;23.93;31.03;100976.03;5053906;28;19917;-85
2021/05/30 13:24:05;;;;;;;;;;;;;;;23.99;33.01;100972.44;5057640;28;20158;-86
2021/05/30 13:26:50;;;;;;;;;;;;;;;23.88;31.03;100968.91;5056544;28;19917;-86
2021/05/30 13:29:35;;;;;;;;;;;;;;;23.91;29.82;100968.13;5039913;28;19916;-86
2021/05/30 13:32:19;;;;;;;;;;;;;;;24.21;28.22;100959.34;5059245;28;19913;-85
2021/05/30 13:35:04;;;;;;;;;;;;;;;24.21;29.08;100953.78;5057252;28;20291;-85
2021/05/30 13:37:49;;;;;;;;;;;;;;;24.06;28.78;100943.88;5056082;28;19912;-85
2021/05/30 13:40:34;;;;;;;;;;;;;;;24.02;28.18;100952.22;5060163;28;20267;-86
2021/05/30 13:43:19;;;;;;;;;;;;;;;24.00;26.96;100946.25;5053431;28;19912;-86
2021/05/30 13:46:03;;;;;;;;;;;;;;;24.01;28.56;100944.28;5053639;28;19913;-83
2021/05/30 13:48:50;;;;;;;;;;;;;;;23.98;30.42;100933.94;5058173;28;19920;-85
2021/05/30 13:51:34;;;;;;;;;;;;;;;24.07;31.49;100939.91;5058133;28;20383;-86
2021/05/30 13:54:19;;;;;;;;;;;;;;;23.79;31.60;100952.66;5054566;28;19913;-86
2021/05/30 13:57:03;;;;;;;;;;;;;;;23.84;29.41;100940.34;5060556;28;20000;-87
2021/05/30 13:59:48;;;;;;;;;;;;;;;24.02;30.04;100932.78;5056882;28;19920;-88
2021/05/30 14:02:33;;;;;;;;;;;;;;;24.06;28.22;100935.53;5055954;28;20282;-85
2021/05/30 14:05:17;;;;;;;;;;;;;;;24.01;28.89;100933.97;5053868;28;20108;-85
2021/05/30 14:08:02;;;;;;;;;;;;;;;24.06;27.80;100936.31;5058327;28;19913;-86
2021/05/30 14:10:48;;;;;;;;;;;;;;;23.97;28.88;100935.16;5056705;28;19921;-86